Time;durP1;ratioP1;P1;durP2;ratioP2;P2;SDS_P1;SDS_P2;PMS_P1;PMS_P2;Temp;Humidity;BMP_temperature;BMP_pressure;BME280_temperature;BME280_humidity;BME280_pressure;Samples;Min_cycle;Max_cycle;Signal;HPM_P1;HPM_P2
2023/12/03 00:02:23;;;;;;;6.03;3.65;;;-0.50;99.90;;;;;;5072789;28;20048;-81
2023/12/03 00:04:51;;;;;;;6.20;3.17;;;-0.50;99.90;;;;;;5072235;28;20559;-80
2023/12/03 00:07:17;;;;;;;6.75;2.85;;;-0.60;99.90;;;;;;5072239;28;20056;-81
2023/12/03 00:09:46;;;;;;;5.65;2.97;;;-0.60;99.90;;;;;;5072571;28;20494;-80
2023/12/03 00:12:13;;;;;;;5.57;2.80;;;-0.60;99.90;;;;;;5072524;28;20048;-80
2023/12/03 00:14:39;;;;;;;5.80;2.95;;;-0.60;99.90;;;;;;5073497;28;20475;-80
2023/12/03 00:17:04;;;;;;;8.93;2.80;;;-0.60;99.90;;;;;;5072265;28;20053;-80
2023/12/03 00:19:30;;;;;;;5.10;2.47;;;-0.60;99.90;;;;;;5072284;28;20127;-80
2023/12/03 00:21:56;;;;;;;8.02;2.90;;;-0.60;99.90;;;;;;5072382;28;20395;-80
2023/12/03 00:24:22;;;;;;;4.88;2.40;;;-0.60;99.90;;;;;;5072489;28;20364;-80
2023/12/03 00:26:48;;;;;;;6.28;2.95;;;-0.70;99.90;;;;;;5072127;28;20428;-80
2023/12/03 00:29:14;;;;;;;4.90;2.45;;;-0.60;99.90;;;;;;5072268;28;20091;-80
2023/12/03 00:31:40;;;;;;;5.57;2.63;;;-0.70;99.90;;;;;;5072203;28;20036;-80
2023/12/03 00:34:06;;;;;;;5.10;2.10;;;-0.70;99.90;;;;;;5072262;28;20067;-80
2023/12/03 00:36:35;;;;;;;5.15;2.40;;;-0.70;99.90;;;;;;5071991;28;20479;-80
2023/12/03 00:39:00;;;;;;;3.17;1.63;;;-0.70;99.90;;;;;;5072004;28;20456;-80
2023/12/03 00:41:26;;;;;;;7.22;2.17;;;-0.80;99.90;;;;;;5073175;28;20503;-80
2023/12/03 00:43:51;;;;;;;4.35;2.15;;;-0.80;99.90;;;;;;5072263;28;20087;-80
2023/12/03 00:46:18;;;;;;;3.55;1.52;;;-0.90;99.90;;;;;;5072050;28;20048;-80
2023/12/03 00:48:45;;;;;;;3.03;1.67;;;-0.90;99.90;;;;;;5072188;28;20063;-80
2023/12/03 00:51:10;;;;;;;3.53;1.77;;;-0.90;99.90;;;;;;5073316;28;20093;-80
2023/12/03 00:53:36;;;;;;;3.83;1.98;;;-0.90;99.90;;;;;;5071842;28;20131;-80
2023/12/03 00:56:02;;;;;;;3.97;1.92;;;-0.90;99.90;;;;;;5071882;28;20047;-80
2023/12/03 00:58:27;;;;;;;3.72;1.60;;;-0.90;99.90;;;;;;5072013;28;20582;-80
2023/12/03 01:00:53;;;;;;;6.88;2.20;;;-0.90;99.90;;;;;;5071778;28;20048;-80
2023/12/03 01:03:19;;;;;;;3.92;2.03;;;-0.90;99.90;;;;;;5074647;28;20037;-80
2023/12/03 01:05:44;;;;;;;5.93;2.13;;;-0.90;99.90;;;;;;5075467;28;20380;-79
2023/12/03 01:08:10;;;;;;;5.32;1.98;;;-0.90;99.90;;;;;;5075285;28;20048;-80
2023/12/03 01:10:37;;;;;;;5.78;1.95;;;-1.00;99.90;;;;;;5075480;28;20086;-80
2023/12/03 01:13:03;;;;;;;3.47;1.55;;;-0.90;99.90;;;;;;5075621;28;20521;-80
2023/12/03 01:15:28;;;;;;;4.45;2.03;;;-0.90;99.90;;;;;;5075651;28;20084;-80
2023/12/03 01:17:54;;;;;;;6.82;2.10;;;-1.00;99.90;;;;;;5076640;28;20039;-80
2023/12/03 01:20:20;;;;;;;4.15;1.90;;;-1.00;99.90;;;;;;5075280;28;20048;-80
2023/12/03 01:22:45;;;;;;;6.68;2.42;;;-1.00;99.90;;;;;;5075471;28;20048;-80
2023/12/03 01:25:11;;;;;;;7.50;2.33;;;-1.00;99.90;;;;;;5075220;28;20068;-80
2023/12/03 01:27:37;;;;;;;4.60;1.92;;;-1.10;99.90;;;;;;5075394;28;20084;-80
2023/12/03 01:30:02;;;;;;;5.97;2.28;;;-1.10;99.90;;;;;;5075152;28;20509;-80
2023/12/03 01:32:28;;;;;;;3.78;1.75;;;-1.10;99.90;;;;;;5074927;28;20047;-80
2023/12/03 01:34:54;;;;;;;3.90;1.65;;;-1.00;99.90;;;;;;5074934;28;20480;-80
2023/12/03 01:37:19;;;;;;;5.88;2.25;;;-1.10;99.90;;;;;;5075162;28;20071;-80
2023/12/03 01:39:46;;;;;;;4.38;2.00;;;-1.10;99.90;;;;;;5074898;28;20131;-80
2023/12/03 01:42:11;;;;;;;2.92;1.50;;;-1.10;99.90;;;;;;5075218;28;20388;-80
2023/12/03 01:44:37;;;;;;;5.38;2.05;;;-1.10;99.90;;;;;;5074833;28;20476;-79
2023/12/03 01:47:03;;;;;;;4.00;1.75;;;-1.20;99.90;;;;;;5074967;28;20040;-80
2023/12/03 01:49:30;;;;;;;4.32;1.80;;;-1.20;99.90;;;;;;5074697;28;20044;-80
2023/12/03 01:51:57;;;;;;;4.95;1.60;;;-1.10;99.90;;;;;;5074695;28;20078;-80
2023/12/03 01:54:27;;;;;;;3.95;1.75;;;-1.10;99.90;;;;;;5075968;28;20057;-79
2023/12/03 01:56:54;;;;;;;3.25;1.67;;;-1.10;99.90;;;;;;5076004;28;20037;-80
2023/12/03 01:59:23;;;;;;;4.30;1.85;;;-1.10;99.90;;;;;;5075819;28;20496;-79
2023/12/03 02:01:49;;;;;;;4.28;1.98;;;-1.20;99.90;;;;;;5074329;28;20044;-80
2023/12/03 02:04:14;;;;;;;4.80;2.13;;;-1.10;99.90;;;;;;5074680;28;20071;-79
2023/12/03 02:06:40;;;;;;;3.80;1.95;;;-1.20;99.90;;;;;;5074740;28;20496;-80
2023/12/03 02:09:07;;;;;;;3.80;1.80;;;-1.20;99.90;;;;;;5074235;28;20056;-80
2023/12/03 02:11:34;;;;;;;4.57;2.25;;;-1.20;99.90;;;;;;5074455;28;20044;-80
2023/12/03 02:14:02;;;;;;;6.05;2.00;;;-1.20;99.90;;;;;;5073740;28;20106;-79
2023/12/03 02:16:30;;;;;;;4.80;2.47;;;-1.20;99.90;;;;;;5074439;28;20052;-80
2023/12/03 02:18:56;;;;;;;4.20;1.90;;;-1.20;99.90;;;;;;5074222;28;20094;-80
2023/12/03 02:21:22;;;;;;;3.78;1.65;;;-1.20;99.90;;;;;;5074083;28;20040;-80
2023/12/03 02:23:47;;;;;;;3.60;1.90;;;-1.20;99.90;;;;;;5075496;28;20052;-80
2023/12/03 02:26:13;;;;;;;5.93;1.90;;;-1.20;99.90;;;;;;5074369;28;20079;-80
2023/12/03 02:28:39;;;;;;;3.97;1.75;;;-1.20;99.90;;;;;;5073922;28;20049;-80
2023/12/03 02:31:05;;;;;;;4.68;1.95;;;-1.20;99.90;;;;;;5074146;28;20067;-80
2023/12/03 02:33:30;;;;;;;5.03;1.88;;;-1.20;99.90;;;;;;5073832;28;20411;-80
2023/12/03 02:35:56;;;;;;;4.32;1.90;;;-1.20;99.90;;;;;;5074050;28;20045;-80
2023/12/03 02:38:22;;;;;;;3.63;1.75;;;-1.30;99.90;;;;;;5074141;28;20157;-80
2023/12/03 02:40:47;;;;;;;5.32;2.00;;;-1.20;99.90;;;;;;5074910;28;20049;-80
2023/12/03 02:43:13;;;;;;;4.03;2.20;;;-1.30;99.90;;;;;;5073818;28;20048;-80
2023/12/03 02:45:39;;;;;;;3.38;1.65;;;-1.30;99.90;;;;;;5073821;28;20048;-80
2023/12/03 02:48:04;;;;;;;5.72;1.63;;;-1.30;99.90;;;;;;5073554;28;20045;-80
2023/12/03 02:50:30;;;;;;;6.20;1.85;;;-1.40;99.90;;;;;;5073471;28;20044;-80
2023/12/03 02:52:55;;;;;;;3.88;1.70;;;-1.40;99.90;;;;;;5073803;28;20051;-80
2023/12/03 02:55:21;;;;;;;4.05;1.77;;;-1.40;99.90;;;;;;5073444;28;20539;-80
2023/12/03 02:57:47;;;;;;;4.22;2.08;;;-1.40;99.90;;;;;;5073316;28;20037;-80
2023/12/03 03:00:13;;;;;;;6.25;2.10;;;-1.40;99.90;;;;;;5073390;28;20041;-80
2023/12/03 03:02:39;;;;;;;4.53;1.88;;;-1.40;99.90;;;;;;5073251;28;20087;-80
2023/12/03 03:05:05;;;;;;;3.92;1.80;;;-1.40;99.90;;;;;;5073282;28;20067;-80
2023/12/03 03:07:32;;;;;;;4.93;1.90;;;-1.50;99.90;;;;;;5074283;28;20530;-80
2023/12/03 03:10:01;;;;;;;4.30;2.13;;;-1.50;99.90;;;;;;5073070;28;20049;-80
2023/12/03 03:12:26;;;;;;;4.95;1.95;;;-1.50;99.90;;;;;;5073209;28;20044;-80
2023/12/03 03:14:55;;;;;;;3.58;1.88;;;-1.50;99.90;;;;;;5072992;28;20495;-80
2023/12/03 03:17:20;;;;;;;3.78;2.03;;;-1.50;99.90;;;;;;5073323;28;20042;-80
2023/12/03 03:19:46;;;;;;;6.10;2.25;;;-1.50;99.90;;;;;;5073136;28;20040;-80
2023/12/03 03:22:12;;;;;;;3.88;1.73;;;-1.50;99.90;;;;;;5073021;28;20522;-80
2023/12/03 03:24:39;;;;;;;4.38;2.00;;;-1.50;99.90;;;;;;5073188;28;20032;-80
2023/12/03 03:27:05;;;;;;;4.22;1.80;;;-1.50;99.90;;;;;;5071953;28;20044;-80
2023/12/03 03:29:30;;;;;;;4.43;2.40;;;-1.50;99.90;;;;;;5072752;28;20492;-80
2023/12/03 03:31:56;;;;;;;4.75;1.83;;;-1.60;99.90;;;;;;5072792;28;20079;-80
2023/12/03 03:34:21;;;;;;;3.80;1.88;;;-1.60;99.90;;;;;;5072732;28;20043;-80
2023/12/03 03:36:47;;;;;;;3.15;1.60;;;-1.60;99.90;;;;;;5072794;28;20045;-80
2023/12/03 03:39:13;;;;;;;3.92;1.90;;;-1.60;99.90;;;;;;5072675;28;20040;-80
2023/12/03 03:41:38;;;;;;;4.28;1.90;;;-1.60;99.90;;;;;;5072509;28;20080;-80
2023/12/03 03:44:04;;;;;;;4.63;2.03;;;-1.60;99.90;;;;;;5072568;28;20105;-80
2023/12/03 03:46:29;;;;;;;3.78;2.00;;;-1.60;99.90;;;;;;5072596;28;20047;-80
2023/12/03 03:48:55;;;;;;;5.47;2.70;;;-1.60;99.90;;;;;;5072782;28;20080;-80
2023/12/03 03:51:20;;;;;;;4.00;1.90;;;-1.60;99.90;;;;;;5072569;28;20051;-80
2023/12/03 03:53:46;;;;;;;4.65;2.20;;;-1.60;99.90;;;;;;5072767;28;20101;-80
2023/12/03 03:56:12;;;;;;;5.85;1.80;;;-1.60;99.90;;;;;;5072378;28;20095;-80
2023/12/03 03:58:38;;;;;;;4.13;1.67;;;-1.70;99.90;;;;;;5072564;28;20541;-80
2023/12/03 04:01:10;;;;;;;3.53;1.80;;;-1.60;99.90;;;;;;5072422;28;20040;-80
2023/12/03 04:03:36;;;;;;;4.37;1.83;;;-1.70;99.90;;;;;;5072652;28;20550;-80
2023/12/03 04:06:06;;;;;;;4.32;2.17;;;-1.70;99.90;;;;;;5072317;28;20128;-80
2023/12/03 04:08:33;;;;;;;4.25;1.85;;;-1.60;99.90;;;;;;5072070;28;20048;-80
2023/12/03 04:11:04;;;;;;;3.65;2.00;;;-1.70;99.90;;;;;;5072221;28;20419;-80
2023/12/03 04:13:30;;;;;;;4.47;1.90;;;-1.70;99.90;;;;;;5072529;28;20071;-80
2023/12/03 04:15:57;;;;;;;4.68;1.83;;;-1.70;99.90;;;;;;5072238;28;20388;-80
2023/12/03 04:18:23;;;;;;;4.45;2.13;;;-1.60;99.90;;;;;;5072452;28;20053;-80
2023/12/03 04:20:49;;;;;;;5.07;2.05;;;-1.60;99.90;;;;;;5072156;28;20045;-80
2023/12/03 04:23:15;;;;;;;4.30;1.90;;;-1.70;99.90;;;;;;5071992;28;20071;-80
2023/12/03 04:25:41;;;;;;;4.00;1.95;;;-1.70;99.90;;;;;;5072111;28;20044;-80
2023/12/03 04:28:06;;;;;;;5.72;1.95;;;-1.70;99.90;;;;;;5073324;28;20044;-80
2023/12/03 04:30:32;;;;;;;3.33;1.58;;;-1.70;99.90;;;;;;5072161;28;20049;-80
2023/12/03 04:32:58;;;;;;;3.83;2.25;;;-1.70;99.90;;;;;;5072439;28;20130;-80
2023/12/03 04:35:23;;;;;;;4.70;2.10;;;-1.70;99.90;;;;;;5072139;28;20055;-80
2023/12/03 04:37:49;;;;;;;4.32;2.08;;;-1.70;99.90;;;;;;5074249;28;20135;-80
2023/12/03 04:40:16;;;;;;;4.43;2.03;;;-1.70;99.90;;;;;;5076145;28;20051;-80
2023/12/03 04:42:41;;;;;;;4.43;2.17;;;-1.70;99.90;;;;;;5076373;28;20475;-80
2023/12/03 04:45:08;;;;;;;4.68;2.65;;;-1.70;99.90;;;;;;5075879;28;20041;-80
2023/12/03 04:47:33;;;;;;;5.05;2.20;;;-1.70;99.90;;;;;;5075871;28;20098;-80
2023/12/03 04:49:59;;;;;;;4.78;2.35;;;-1.70;99.90;;;;;;5076193;28;20539;-80
2023/12/03 04:52:25;;;;;;;5.28;2.13;;;-1.70;99.90;;;;;;5075734;28;20388;-80
2023/12/03 04:54:50;;;;;;;6.25;2.38;;;-1.60;99.90;;;;;;5075735;28;20044;-80
2023/12/03 04:57:16;;;;;;;5.90;2.83;;;-1.70;99.90;;;;;;5075533;28;20039;-80
2023/12/03 04:59:41;;;;;;;6.97;2.72;;;-1.60;99.90;;;;;;5075634;28;20046;-80
2023/12/03 05:02:07;;;;;;;6.20;3.15;;;-1.60;99.90;;;;;;5075982;28;20048;-80
2023/12/03 05:04:32;;;;;;;7.70;3.35;;;-1.60;99.90;;;;;;5075601;28;20430;-80
2023/12/03 05:06:58;;;;;;;6.55;3.40;;;-1.60;99.90;;;;;;5075457;28;20051;-80
2023/12/03 05:09:24;;;;;;;7.35;3.38;;;-1.50;99.90;;;;;;5075492;28;20463;-80
2023/12/03 05:11:50;;;;;;;7.95;3.33;;;-1.50;99.90;;;;;;5075630;28;20052;-80
2023/12/03 05:14:15;;;;;;;6.18;3.33;;;-1.50;99.90;;;;;;5075730;28;20045;-80
2023/12/03 05:16:41;;;;;;;6.05;3.50;;;-1.50;99.90;;;;;;5075316;28;20395;-80
2023/12/03 05:19:06;;;;;;;7.32;4.03;;;-1.50;99.90;;;;;;5075105;28;20158;-80
2023/12/03 05:21:32;;;;;;;8.95;4.07;;;-1.50;99.90;;;;;;5075209;28;20052;-80
2023/12/03 05:23:58;;;;;;;8.48;3.80;;;-1.40;99.90;;;;;;5075169;28;20043;-80
2023/12/03 05:26:24;;;;;;;9.60;4.72;;;-1.40;99.90;;;;;;5075421;28;20044;-80
2023/12/03 05:28:50;;;;;;;8.82;4.80;;;-1.30;99.90;;;;;;5076294;28;20613;-80
2023/12/03 05:31:15;;;;;;;9.40;5.47;;;-1.30;99.90;;;;;;5075341;28;20047;-80
2023/12/03 05:33:42;;;;;;;9.75;5.50;;;-1.20;99.90;;;;;;5075099;28;20125;-80
2023/12/03 05:36:08;;;;;;;10.55;5.00;;;-1.20;99.90;;;;;;5074935;28;20125;-80
2023/12/03 05:38:34;;;;;;;10.65;5.70;;;-1.20;99.90;;;;;;5075144;28;20056;-80
2023/12/03 05:40:59;;;;;;;11.75;6.05;;;-1.20;99.90;;;;;;5074857;28;20059;-80
2023/12/03 05:43:25;;;;;;;13.50;7.55;;;-1.20;99.90;;;;;;5075138;28;20053;-80
2023/12/03 05:45:51;;;;;;;14.90;8.40;;;-1.10;99.90;;;;;;5076208;28;20080;-80
2023/12/03 05:48:16;;;;;;;13.40;7.32;;;-1.00;99.90;;;;;;5074408;28;20037;-80
2023/12/03 05:50:42;;;;;;;18.38;11.13;;;-1.00;99.90;;;;;;5074385;28;20051;-80
2023/12/03 05:53:08;;;;;;;15.90;8.23;;;-1.00;99.90;;;;;;5074952;28;20041;-80
2023/12/03 05:55:33;;;;;;;15.70;7.85;;;-1.00;99.90;;;;;;5074660;28;20043;-80
2023/12/03 05:57:59;;;;;;;16.35;8.95;;;-1.00;99.90;;;;;;5074627;28;20040;-80
2023/12/03 06:00:24;;;;;;;15.32;8.30;;;-1.00;99.90;;;;;;5074815;28;20089;-80
2023/12/03 06:02:50;;;;;;;17.15;9.68;;;-1.00;99.90;;;;;;5074748;28;20395;-80
2023/12/03 06:05:16;;;;;;;17.40;9.60;;;-1.00;99.90;;;;;;5074346;28;20077;-80
2023/12/03 06:07:41;;;;;;;17.38;9.40;;;-1.00;99.90;;;;;;5074406;28;20044;-80
2023/12/03 06:10:08;;;;;;;18.83;10.52;;;-1.00;99.90;;;;;;5074367;28;20098;-80
2023/12/03 06:12:33;;;;;;;19.17;9.63;;;-1.00;99.90;;;;;;5074670;28;20475;-80
2023/12/03 06:14:59;;;;;;;20.92;10.25;;;-1.00;99.90;;;;;;5074359;28;20044;-80
2023/12/03 06:17:25;;;;;;;20.92;10.50;;;-1.00;99.90;;;;;;5074475;28;20051;-80
2023/12/03 06:19:50;;;;;;;27.40;12.00;;;-0.90;99.90;;;;;;5075211;28;20136;-81
2023/12/03 06:22:16;;;;;;;24.73;11.57;;;-0.90;99.90;;;;;;5075852;28;20044;-81
2023/12/03 06:24:42;;;;;;;23.52;11.88;;;-0.90;99.90;;;;;;5074012;28;20045;-81
2023/12/03 06:27:07;;;;;;;21.90;12.23;;;-0.80;99.90;;;;;;5074024;28;20044;-81
2023/12/03 06:29:33;;;;;;;22.98;11.48;;;-0.90;99.90;;;;;;5074035;28;20036;-81
2023/12/03 06:31:58;;;;;;;21.42;10.95;;;-0.90;99.90;;;;;;5073984;28;20032;-81
2023/12/03 06:34:24;;;;;;;20.42;11.18;;;-0.90;99.90;;;;;;5074234;28;20048;-81
2023/12/03 06:36:50;;;;;;;30.98;13.85;;;-0.90;99.90;;;;;;5073980;28;20044;-81
2023/12/03 06:39:15;;;;;;;31.83;13.25;;;-0.90;99.90;;;;;;5074110;28;20413;-81
2023/12/03 06:41:41;;;;;;;33.25;13.30;;;-0.90;99.90;;;;;;5073741;28;20075;-81
2023/12/03 06:44:07;;;;;;;45.55;12.98;;;-0.80;99.90;;;;;;5074016;28;20043;-81
2023/12/03 06:46:40;;;;;;;45.03;13.88;;;-0.80;99.90;;;;;;5073709;28;20048;-81
2023/12/03 06:49:05;;;;;;;71.95;13.20;;;-0.90;99.90;;;;;;5073795;28;20368;-81
2023/12/03 06:51:31;;;;;;;84.57;14.85;;;-0.90;99.90;;;;;;5073534;28;20039;-81
2023/12/03 06:53:56;;;;;;;89.05;18.52;;;-0.90;99.90;;;;;;5073729;28;20052;-81
2023/12/03 06:56:22;;;;;;;83.97;14.93;;;-0.90;99.90;;;;;;5073527;28;20131;-81
2023/12/03 06:58:48;;;;;;;135.25;17.20;;;-0.90;99.90;;;;;;5073699;28;20053;-81
2023/12/03 07:01:13;;;;;;;88.95;16.42;;;-1.00;99.90;;;;;;5074419;28;20048;-81
2023/12/03 07:03:39;;;;;;;87.65;15.13;;;-1.00;99.90;;;;;;5073324;28;20049;-81
2023/12/03 07:06:05;;;;;;;66.32;14.95;;;-1.10;99.90;;;;;;5073093;28;20083;-82
2023/12/03 07:08:31;;;;;;;65.22;14.95;;;-1.00;99.90;;;;;;5073071;28;20541;-82
2023/12/03 07:10:58;;;;;;;79.88;16.50;;;-1.10;99.90;;;;;;5073189;28;20404;-82
2023/12/03 07:13:24;;;;;;;58.22;15.18;;;-1.10;99.90;;;;;;5073104;28;20047;-82
2023/12/03 07:15:49;;;;;;;83.38;15.57;;;-1.00;99.90;;;;;;5074427;28;20197;-82
2023/12/03 07:18:15;;;;;;;69.60;14.93;;;-1.00;99.90;;;;;;5072943;28;20124;-82
2023/12/03 07:20:41;;;;;;;127.95;19.73;;;-1.00;99.90;;;;;;5072956;28;20044;-82
2023/12/03 07:23:06;;;;;;;91.22;14.27;;;-1.00;99.90;;;;;;5072877;28;20048;-82
2023/12/03 07:25:32;;;;;;;79.35;15.68;;;-1.00;99.90;;;;;;5072838;28;20036;-82
2023/12/03 07:27:58;;;;;;;84.47;16.67;;;-1.00;99.90;;;;;;5056181;28;20144;-82
2023/12/03 07:30:25;;;;;;;85.50;17.25;;;-1.00;99.90;;;;;;5052766;28;20459;-81
2023/12/03 07:32:51;;;;;;;56.15;17.55;;;-0.90;99.90;;;;;;5052569;28;20140;-81
2023/12/03 07:35:16;;;;;;;83.45;20.17;;;-0.90;99.90;;;;;;5052927;28;20105;-82
2023/12/03 07:37:42;;;;;;;112.93;22.30;;;-0.90;99.90;;;;;;5052131;28;20045;-81
2023/12/03 07:40:09;;;;;;;78.72;20.75;;;-0.80;99.90;;;;;;5052383;28;20439;-80
2023/12/03 07:42:35;;;;;;;74.65;21.88;;;-0.80;99.90;;;;;;5053848;28;20053;-82
2023/12/03 07:45:00;;;;;;;120.43;28.17;;;-0.80;99.90;;;;;;5052469;28;20128;-82
2023/12/03 07:47:26;;;;;;;79.18;22.23;;;-0.70;99.90;;;;;;5052293;28;20045;-82
2023/12/03 07:49:52;;;;;;;70.03;19.13;;;-0.60;99.90;;;;;;5052464;28;20037;-82
2023/12/03 07:52:19;;;;;;;66.32;20.40;;;-0.60;99.90;;;;;;5054433;28;20044;-82
2023/12/03 07:54:44;;;;;;;64.55;19.70;;;-0.50;99.90;;;;;;5060858;28;20045;-82
2023/12/03 07:57:10;;;;;;;64.28;20.88;;;-0.40;99.90;;;;;;5052114;28;20051;-82
2023/12/03 07:59:36;;;;;;;121.07;24.95;;;-0.40;99.90;;;;;;5052106;28;20040;-82
2023/12/03 08:02:01;;;;;;;88.20;22.75;;;-0.30;99.90;;;;;;5051947;28;20087;-82
2023/12/03 08:04:28;;;;;;;79.22;21.75;;;-0.30;99.90;;;;;;5051876;28;20049;-82
2023/12/03 08:06:54;;;;;;;106.72;23.33;;;-0.20;99.90;;;;;;5051670;28;20054;-82
2023/12/03 08:09:20;;;;;;;145.95;28.88;;;-0.10;99.90;;;;;;5051873;28;20057;-83
2023/12/03 08:11:46;;;;;;;101.38;23.83;;;-0.10;99.90;;;;;;5051365;28;20060;-82
2023/12/03 08:14:11;;;;;;;110.22;23.80;;;0.00;99.90;;;;;;5051749;28;20049;-82
2023/12/03 08:16:37;;;;;;;105.85;24.75;;;0.10;99.90;;;;;;5051808;28;20049;-83
2023/12/03 08:19:03;;;;;;;128.45;27.70;;;0.10;99.90;;;;;;5051859;28;20125;-81
2023/12/03 08:21:30;;;;;;;184.82;33.42;;;0.10;99.90;;;;;;5051663;28;20045;-82
2023/12/03 08:23:58;;;;;;;138.77;29.00;;;0.20;99.90;;;;;;5051746;28;20044;-83
2023/12/03 08:26:24;;;;;;;141.57;31.55;;;0.20;99.90;;;;;;5053042;28;20049;-83
2023/12/03 08:28:49;;;;;;;173.75;32.38;;;0.30;99.90;;;;;;5052871;28;20049;-82
2023/12/03 08:31:15;;;;;;;142.48;28.30;;;0.30;99.90;;;;;;5053135;28;20481;-82
2023/12/03 08:33:41;;;;;;;140.38;28.13;;;0.40;99.90;;;;;;5051701;28;20118;-82
2023/12/03 08:36:07;;;;;;;143.15;26.05;;;0.40;99.90;;;;;;5051672;28;20041;-80
2023/12/03 08:38:33;;;;;;;139.65;28.98;;;0.40;99.90;;;;;;5051695;28;20053;-80
2023/12/03 08:40:58;;;;;;;107.25;24.73;;;0.40;99.90;;;;;;5051795;28;20040;-80
2023/12/03 08:43:24;;;;;;;88.68;20.50;;;0.50;99.90;;;;;;5051520;28;20063;-80
2023/12/03 08:45:49;;;;;;;102.80;23.05;;;0.50;99.90;;;;;;5051588;28;20053;-81
2023/12/03 08:48:15;;;;;;;84.22;18.05;;;0.50;99.90;;;;;;5051815;28;20056;-80
2023/12/03 08:50:40;;;;;;;95.28;21.30;;;0.50;99.90;;;;;;5051704;28;20063;-82
2023/12/03 08:53:07;;;;;;;107.60;22.40;;;0.60;99.90;;;;;;5051473;28;20049;-82
2023/12/03 08:55:32;;;;;;;104.18;20.15;;;0.60;99.90;;;;;;5051355;28;20127;-80
2023/12/03 08:57:58;;;;;;;97.38;20.40;;;0.60;99.90;;;;;;5051572;28;20132;-80
2023/12/03 09:00:24;;;;;;;101.75;20.55;;;0.60;99.90;;;;;;5034843;28;20400;-82
2023/12/03 09:02:52;;;;;;;101.90;21.55;;;0.60;99.90;;;;;;5051457;28;20049;-81
2023/12/03 09:05:18;;;;;;;115.55;21.92;;;0.60;99.90;;;;;;5063491;28;20041;-80
2023/12/03 09:07:45;;;;;;;116.97;22.20;;;0.60;99.90;;;;;;5071259;28;20059;-81
2023/12/03 09:10:11;;;;;;;107.05;20.83;;;0.70;99.90;;;;;;5071252;28;20488;-81
2023/12/03 09:12:36;;;;;;;101.95;22.00;;;0.60;99.90;;;;;;5072340;28;20113;-81
2023/12/03 09:15:02;;;;;;;97.85;19.95;;;0.70;99.90;;;;;;5072671;28;20083;-81
2023/12/03 09:17:28;;;;;;;94.15;20.02;;;0.70;99.90;;;;;;5071594;28;20056;-82
2023/12/03 09:19:54;;;;;;;110.93;21.63;;;0.70;99.90;;;;;;5071240;28;20469;-81
2023/12/03 09:22:20;;;;;;;102.43;20.92;;;0.70;99.90;;;;;;5071497;28;20048;-80
2023/12/03 09:24:46;;;;;;;102.45;22.58;;;0.70;99.90;;;;;;5072705;28;20055;-81
2023/12/03 09:27:15;;;;;;;108.30;23.05;;;0.70;99.90;;;;;;5074971;28;20127;-80
2023/12/03 09:29:41;;;;;;;94.22;22.05;;;0.70;99.90;;;;;;5075065;28;20076;-80
2023/12/03 09:32:07;;;;;;;126.75;25.25;;;0.70;99.90;;;;;;5074978;28;20076;-80
2023/12/03 09:34:32;;;;;;;107.72;23.65;;;0.70;99.90;;;;;;5074578;28;20492;-80
2023/12/03 09:36:58;;;;;;;83.35;20.83;;;0.70;99.90;;;;;;5067823;28;20048;-80
2023/12/03 09:39:24;;;;;;;118.13;22.77;;;0.70;99.90;;;;;;5056703;28;20051;-80
2023/12/03 09:41:51;;;;;;;104.38;22.77;;;0.80;99.90;;;;;;5068646;28;20495;-81
2023/12/03 09:44:19;;;;;;;93.13;24.85;;;0.80;99.90;;;;;;5062690;28;20041;-80
2023/12/03 09:46:50;;;;;;;99.70;24.10;;;0.80;99.90;;;;;;5058458;28;20041;-80
2023/12/03 09:49:18;;;;;;;104.25;24.42;;;0.80;99.90;;;;;;5063184;28;20082;-80
2023/12/03 09:51:43;;;;;;;92.18;24.27;;;0.80;99.90;;;;;;5065185;28;20048;-80
2023/12/03 09:54:12;;;;;;;93.40;26.23;;;0.80;99.90;;;;;;5064018;28;20041;-81
2023/12/03 09:56:41;;;;;;;97.03;27.35;;;0.90;99.90;;;;;;5064781;28;20057;-81
2023/12/03 09:59:09;;;;;;;101.65;27.73;;;0.90;99.90;;;;;;5067770;28;20110;-83
2023/12/03 10:01:38;;;;;;;93.20;28.85;;;0.90;99.90;;;;;;5073938;28;20403;-81
2023/12/03 10:04:04;;;;;;;94.13;27.30;;;0.90;99.90;;;;;;5074112;28;20045;-81
2023/12/03 10:06:39;;;;;;;94.72;28.02;;;0.90;99.90;;;;;;5074066;28;20138;-81
2023/12/03 10:09:06;;;;;;;96.72;29.85;;;1.00;99.90;;;;;;5073893;28;20056;-81
2023/12/03 10:11:42;;;;;;;94.88;28.00;;;1.00;99.90;;;;;;5074463;28;20140;-81
2023/12/03 10:14:09;;;;;;;90.03;28.08;;;1.00;99.90;;;;;;5073949;28;20123;-81
2023/12/03 10:16:35;;;;;;;99.05;30.00;;;1.00;99.90;;;;;;5073942;28;20049;-80
2023/12/03 10:19:00;;;;;;;94.35;29.38;;;1.10;99.90;;;;;;5067683;28;20058;-81
2023/12/03 10:21:27;;;;;;;99.45;32.50;;;1.10;99.90;;;;;;5073599;28;20094;-81
2023/12/03 10:24:03;;;;;;;101.47;31.25;;;1.10;99.90;;;;;;5086462;22;20050;-81
2023/12/03 10:26:30;;;;;;;103.75;32.83;;;1.10;99.90;;;;;;5094128;28;20064;-81
2023/12/03 10:28:56;;;;;;;101.28;33.55;;;1.20;99.90;;;;;;5093727;28;20063;-81
2023/12/03 10:31:21;;;;;;;110.75;35.08;;;1.20;99.90;;;;;;5093772;28;20086;-81
2023/12/03 10:33:47;;;;;;;88.72;32.55;;;1.40;99.90;;;;;;5093980;28;20089;-81
2023/12/03 10:36:13;;;;;;;87.05;31.33;;;1.40;99.90;;;;;;5093263;28;20466;-81
2023/12/03 10:38:43;;;;;;;97.70;35.30;;;1.40;99.90;;;;;;5093873;28;20043;-82
2023/12/03 10:41:13;;;;;;;90.65;33.03;;;1.40;99.90;;;;;;5093601;28;20044;-80
2023/12/03 10:43:41;;;;;;;93.13;32.97;;;1.40;99.90;;;;;;5093776;28;20487;-82
2023/12/03 10:46:11;;;;;;;80.05;28.65;;;1.50;99.90;;;;;;5093785;28;20063;-81
2023/12/03 10:48:38;;;;;;;85.00;32.22;;;1.50;99.90;;;;;;5093670;28;20105;-81
2023/12/03 10:51:05;;;;;;;85.97;31.55;;;1.60;99.90;;;;;;5093738;28;20086;-81
2023/12/03 10:53:32;;;;;;;88.70;31.25;;;1.70;99.90;;;;;;5093694;28;20051;-81
2023/12/03 10:56:01;;;;;;;85.43;33.97;;;1.70;99.90;;;;;;5093613;28;20043;-81
2023/12/03 10:58:26;;;;;;;80.38;31.45;;;1.70;99.90;;;;;;5093336;28;20055;-81
2023/12/03 11:01:01;;;;;;;82.80;32.67;;;1.80;99.90;;;;;;5093036;28;20052;-81
2023/12/03 11:03:52;;;;;;;83.25;33.97;;;1.80;99.90;;;;;;5093516;28;20052;-81
2023/12/03 11:06:18;;;;;;;84.05;33.50;;;1.90;99.90;;;;;;5085098;28;20040;-83
2023/12/03 11:08:51;;;;;;;80.97;31.85;;;1.90;99.90;;;;;;5092799;28;20576;-80
2023/12/03 11:11:18;;;;;;;86.18;32.47;;;1.90;99.90;;;;;;5089590;28;20047;-80
2023/12/03 11:13:44;;;;;;;71.10;32.75;;;1.90;99.90;;;;;;5081660;28;20076;-80
2023/12/03 11:16:11;;;;;;;79.53;34.20;;;2.00;99.90;;;;;;5083278;28;20024;-81
2023/12/03 11:18:43;;;;;;;74.13;31.73;;;2.00;99.90;;;;;;5085714;28;20032;-81
2023/12/03 11:21:47;;;;;;;75.38;31.58;;;2.00;99.90;;;;;;5092834;28;20056;-81
2023/12/03 11:24:47;;;;;;;68.38;30.95;;;2.00;99.90;;;;;;5092836;28;20051;-81
2023/12/03 11:27:12;;;;;;;67.40;31.25;;;2.10;99.90;;;;;;5092970;28;20052;-81
2023/12/03 11:29:49;;;;;;;63.28;30.48;;;2.20;99.90;;;;;;5086839;28;20094;-81
2023/12/03 11:32:16;;;;;;;68.60;30.38;;;2.20;99.90;;;;;;5092557;28;20126;-81
2023/12/03 11:34:42;;;;;;;70.88;31.17;;;2.20;99.90;;;;;;5093992;28;20079;-81
2023/12/03 11:37:11;;;;;;;64.70;29.25;;;2.30;99.90;;;;;;5092157;28;20079;-81
2023/12/03 11:39:43;;;;;;;66.10;28.10;;;2.30;99.90;;;;;;5088382;28;20087;-81
2023/12/03 11:42:12;;;;;;;69.93;29.83;;;2.30;99.90;;;;;;5072173;28;20044;-85
2023/12/03 11:44:38;;;;;;;65.03;28.90;;;2.20;99.90;;;;;;5072443;28;20289;-83
2023/12/03 11:47:05;;;;;;;68.80;31.65;;;2.10;99.90;;;;;;5071931;28;20056;-83
2023/12/03 11:49:34;;;;;;;67.18;31.88;;;2.20;99.90;;;;;;5072262;28;20494;-82
2023/12/03 11:52:00;;;;;;;89.47;37.15;;;2.10;99.90;;;;;;5072406;28;20475;-83
2023/12/03 11:54:30;;;;;;;91.30;36.30;;;2.10;99.90;;;;;;5072627;28;20492;-83
2023/12/03 11:56:57;;;;;;;66.05;29.92;;;2.20;99.90;;;;;;5072710;28;20044;-81
2023/12/03 11:59:22;;;;;;;58.85;27.30;;;2.10;99.90;;;;;;5072922;28;20044;-80
2023/12/03 12:01:48;;;;;;;56.05;27.92;;;2.00;99.90;;;;;;5073773;28;20044;-81
2023/12/03 12:04:21;;;;;;;59.15;27.35;;;2.00;99.90;;;;;;5072451;28;20047;-80
2023/12/03 12:06:53;;;;;;;53.47;26.40;;;2.00;99.90;;;;;;5073744;28;20045;-83
2023/12/03 12:09:23;;;;;;;52.42;26.33;;;2.00;99.90;;;;;;5072478;28;20044;-81
2023/12/03 12:11:50;;;;;;;51.78;25.42;;;1.90;99.90;;;;;;5072046;28;20120;-83
2023/12/03 12:14:17;;;;;;;52.22;23.70;;;1.90;99.90;;;;;;5073692;28;20040;-82
2023/12/03 12:16:46;;;;;;;51.05;25.98;;;1.90;99.90;;;;;;5071994;28;20045;-81
2023/12/03 12:19:13;;;;;;;48.13;24.58;;;1.90;99.90;;;;;;5073956;28;20048;-83
2023/12/03 12:21:53;;;;;;;48.45;24.95;;;1.80;99.90;;;;;;5073323;28;20058;-80
2023/12/03 12:24:20;;;;;;;47.90;25.77;;;1.80;99.90;;;;;;5072002;28;20045;-79
2023/12/03 12:26:52;;;;;;;46.42;23.65;;;1.70;99.90;;;;;;5073161;28;20438;-82
2023/12/03 12:29:18;;;;;;;43.00;20.73;;;1.70;99.90;;;;;;5072915;28;20106;-82
2023/12/03 12:31:46;;;;;;;50.88;25.60;;;1.70;99.90;;;;;;5072778;28;20080;-82
2023/12/03 12:34:12;;;;;;;46.38;21.75;;;1.70;99.90;;;;;;5072156;28;20086;-82
2023/12/03 12:36:43;;;;;;;46.95;23.83;;;1.80;99.90;;;;;;5072038;28;20083;-81